createdAt,value
2023-03-12T00:02:24.534Z,12.43
2023-03-12T00:04:52.930Z,11.50
2023-03-12T00:07:21.289Z,12.13
2023-03-12T00:09:48.993Z,12.27
2023-03-12T00:12:18.515Z,11.97
2023-03-12T00:14:46.528Z,10.87
2023-03-12T00:17:14.215Z,11.33
2023-03-12T00:19:41.926Z,11.80
2023-03-12T00:22:19.082Z,11.30
2023-03-12T00:24:53.050Z,10.40
2023-03-12T00:27:24.911Z,10.33
2023-03-12T00:29:56.766Z,10.87
2023-03-12T00:32:25.122Z,10.17
2023-03-12T00:34:55.511Z,9.73
2023-03-12T00:37:23.914Z,10.63
2023-03-12T00:39:53.816Z,11.13
2023-03-12T00:42:26.083Z,10.47
2023-03-12T00:44:56.105Z,11.13
2023-03-12T00:47:26.566Z,11.73
2023-03-12T00:49:55.933Z,10.83
2023-03-12T00:52:24.974Z,11.20
2023-03-12T00:54:58.335Z,12.40
2023-03-12T00:57:27.901Z,11.33
2023-03-12T00:59:56.562Z,10.70
2023-03-12T01:02:24.930Z,10.93
2023-03-12T01:04:53.219Z,11.37
2023-03-12T01:07:20.941Z,11.10
2023-03-12T01:09:48.674Z,11.53
2023-03-12T01:12:16.616Z,10.73
2023-03-12T01:14:46.554Z,9.93
2023-03-12T01:17:14.424Z,9.67
2023-03-12T01:19:42.318Z,9.87
2023-03-12T01:22:10.071Z,9.87
2023-03-12T01:24:37.989Z,10.00
2023-03-12T01:27:06.278Z,10.30
2023-03-12T01:29:34.055Z,9.53
2023-03-12T01:32:04.505Z,9.90
2023-03-12T01:34:33.460Z,9.53
2023-03-12T01:37:01.258Z,9.47
2023-03-12T01:39:29.472Z,9.53
2023-03-12T01:41:57.397Z,9.60
2023-03-12T01:44:25.823Z,9.37
2023-03-12T01:46:53.947Z,9.00
2023-03-12T01:49:29.075Z,9.67
2023-03-12T01:52:03.406Z,8.97
2023-03-12T01:54:41.267Z,10.40
2023-03-12T01:57:12.949Z,11.10
2023-03-12T01:59:45.702Z,9.93
2023-03-12T02:02:15.358Z,10.07
2023-03-12T02:04:47.579Z,9.10
2023-03-12T02:07:17.748Z,9.50
2023-03-12T02:09:48.787Z,8.73
2023-03-12T02:12:17.666Z,9.33
2023-03-12T02:14:46.045Z,9.20
2023-03-12T02:17:14.152Z,8.90
2023-03-12T02:19:51.387Z,8.30
2023-03-12T02:22:21.095Z,8.63
2023-03-12T02:24:54.490Z,8.00
2023-03-12T02:27:24.851Z,8.37
2023-03-12T02:29:53.591Z,8.70
2023-03-12T02:32:27.456Z,8.70
2023-03-12T02:34:58.237Z,9.30
2023-03-12T02:37:26.222Z,9.07
2023-03-12T02:40:01.548Z,9.60
2023-03-12T02:42:31.727Z,9.37
2023-03-12T02:45:00.183Z,9.33
2023-03-12T02:47:27.920Z,8.00
2023-03-12T02:49:57.534Z,7.97
2023-03-12T02:52:25.503Z,8.87
2023-03-12T02:54:54.284Z,8.73
2023-03-12T02:57:22.474Z,8.80
2023-03-12T02:59:52.104Z,9.13
2023-03-12T03:02:20.376Z,8.20
2023-03-12T03:04:48.360Z,8.90
2023-03-12T03:07:16.535Z,9.43
2023-03-12T03:09:44.717Z,9.00
2023-03-12T03:12:12.878Z,8.77
2023-03-12T03:14:41.962Z,8.73
2023-03-12T03:17:11.498Z,9.00
2023-03-12T03:19:39.229Z,8.93
2023-03-12T03:22:07.545Z,8.90
2023-03-12T03:24:36.518Z,8.53
2023-03-12T03:27:04.515Z,8.63
2023-03-12T03:29:33.239Z,9.87
2023-03-12T03:32:02.654Z,9.70
2023-03-12T03:34:31.828Z,9.23
2023-03-12T03:37:00.108Z,9.27
2023-03-12T03:39:29.648Z,8.87
2023-03-12T03:41:57.694Z,8.47
2023-03-12T03:44:27.689Z,9.30
2023-03-12T03:46:56.744Z,8.97
2023-03-12T03:49:24.900Z,9.50
2023-03-12T03:51:55.278Z,9.80
2023-03-12T03:54:31.220Z,9.23
2023-03-12T03:57:00.451Z,9.60
2023-03-12T03:59:29.427Z,9.50
2023-03-12T04:01:58.639Z,9.73
2023-03-12T04:04:27.037Z,9.37
2023-03-12T04:06:57.396Z,10.03
2023-03-12T04:09:25.467Z,10.40
2023-03-12T04:11:53.821Z,9.00
2023-03-12T04:14:22.009Z,9.10
2023-03-12T04:16:49.849Z,9.37
2023-03-12T04:19:17.834Z,9.67
2023-03-12T04:21:46.596Z,9.37
2023-03-12T04:24:18.485Z,9.10
2023-03-12T04:26:46.704Z,9.17
2023-03-12T04:29:16.148Z,8.90
2023-03-12T04:31:44.283Z,9.43
2023-03-12T04:34:14.467Z,8.70
2023-03-12T04:36:45.147Z,9.03
2023-03-12T04:39:17.764Z,9.57
2023-03-12T04:41:45.918Z,8.97
2023-03-12T04:44:16.582Z,9.00
2023-03-12T04:46:46.088Z,8.50
2023-03-12T04:49:17.700Z,7.90
2023-03-12T04:51:47.245Z,8.17
2023-03-12T04:54:16.649Z,8.60
2023-03-12T04:56:44.656Z,8.37
2023-03-12T04:59:12.751Z,8.50
2023-03-12T05:01:42.674Z,8.67
2023-03-12T05:04:17.219Z,8.90
2023-03-12T05:06:45.174Z,7.83
2023-03-12T05:09:12.994Z,8.00
2023-03-12T05:11:43.868Z,8.50
2023-03-12T05:14:14.332Z,7.83
2023-03-12T05:16:44.695Z,7.90
2023-03-12T05:19:12.593Z,8.07
2023-03-12T05:21:44.244Z,8.40
2023-03-12T05:24:13.005Z,7.80
2023-03-12T05:26:41.221Z,7.40
2023-03-12T05:29:13.705Z,7.03
2023-03-12T05:31:42.333Z,7.47
2023-03-12T05:34:13.441Z,7.47
2023-03-12T05:36:44.575Z,8.83
2023-03-12T05:39:13.916Z,8.90
2023-03-12T05:41:41.933Z,8.70
2023-03-12T05:44:18.410Z,9.23
2023-03-12T05:46:51.461Z,8.47
2023-03-12T05:49:19.381Z,8.70
2023-03-12T05:51:48.885Z,8.97
2023-03-12T05:54:17.326Z,9.57
2023-03-12T05:56:48.961Z,10.30
2023-03-12T05:59:18.218Z,8.80
2023-03-12T06:01:46.936Z,9.60
2023-03-12T06:04:15.053Z,9.40
2023-03-12T06:06:43.326Z,9.67
2023-03-12T06:09:11.401Z,9.00
2023-03-12T06:11:39.206Z,9.10
2023-03-12T06:14:07.577Z,8.60
2023-03-12T06:16:38.376Z,8.57
2023-03-12T06:19:07.772Z,9.30
2023-03-12T06:21:36.919Z,9.17
2023-03-12T06:24:08.752Z,9.40
2023-03-12T06:26:44.279Z,9.83
2023-03-12T06:29:12.495Z,9.57
2023-03-12T06:31:42.273Z,9.10
2023-03-12T06:34:11.272Z,9.60
2023-03-12T06:36:39.360Z,10.97
2023-03-12T06:39:08.224Z,9.60
2023-03-12T06:41:36.683Z,9.67
2023-03-12T06:44:06.555Z,9.80
2023-03-12T06:46:34.776Z,9.60
2023-03-12T06:49:04.072Z,9.63
2023-03-12T06:51:31.914Z,10.83
2023-03-12T06:54:01.020Z,10.20
2023-03-12T06:56:29.335Z,10.27
2023-03-12T06:59:00.164Z,10.27
2023-03-12T07:01:29.080Z,10.27
2023-03-12T07:03:58.880Z,10.47
2023-03-12T07:06:28.487Z,10.30
2023-03-12T07:08:58.323Z,10.00
2023-03-12T07:11:26.638Z,9.90
2023-03-12T07:13:55.842Z,9.30
2023-03-12T07:16:23.626Z,10.20
2023-03-12T07:18:53.324Z,9.70
2023-03-12T07:21:23.936Z,9.80
2023-03-12T07:23:54.509Z,10.40
2023-03-12T07:26:23.210Z,9.83
2023-03-12T07:28:51.696Z,11.30
2023-03-12T07:31:19.885Z,10.30
2023-03-12T07:33:51.312Z,9.23
2023-03-12T07:36:19.590Z,16.27
2023-03-12T07:38:47.930Z,8.20
2023-03-12T07:41:17.185Z,8.57
2023-03-12T07:43:45.818Z,9.53
2023-03-12T07:46:14.407Z,9.30
2023-03-12T07:48:44.311Z,9.47
2023-03-12T07:51:12.636Z,9.30
2023-03-12T07:53:40.490Z,10.37
2023-03-12T07:56:09.090Z,8.73
2023-03-12T07:58:39.205Z,8.23
2023-03-12T08:01:08.042Z,8.57
2023-03-12T08:03:36.257Z,8.43
2023-03-12T08:06:06.084Z,8.63
2023-03-12T08:08:36.050Z,8.97
2023-03-12T08:11:05.673Z,12.90
2023-03-12T08:13:33.580Z,10.33
2023-03-12T08:16:02.787Z,8.67
2023-03-12T08:18:30.651Z,8.53
2023-03-12T08:20:59.859Z,9.20
2023-03-12T08:23:28.397Z,8.40
2023-03-12T08:25:57.321Z,9.47
2023-03-12T08:28:25.900Z,9.03
2023-03-12T08:30:56.827Z,8.37
2023-03-12T08:33:26.532Z,9.13
2023-03-12T08:35:55.298Z,10.70
2023-03-12T08:38:23.732Z,10.27
2023-03-12T08:40:59.071Z,10.43
2023-03-12T08:43:29.430Z,11.00
2023-03-12T08:45:58.899Z,10.30
2023-03-12T08:48:29.596Z,10.43
2023-03-12T08:50:59.557Z,10.43
2023-03-12T08:53:28.467Z,10.90
2023-03-12T08:56:00.905Z,11.50
2023-03-12T08:58:29.791Z,10.67
2023-03-12T09:00:59.390Z,10.33
2023-03-12T09:03:28.640Z,10.93
2023-03-12T09:06:09.794Z,10.53
2023-03-12T09:08:37.756Z,10.80
2023-03-12T09:11:06.926Z,11.40
2023-03-12T09:13:55.547Z,11.00
2023-03-12T09:16:23.965Z,10.50
2023-03-12T09:18:55.531Z,11.17
2023-03-12T09:21:24.258Z,11.80
2023-03-12T09:23:52.696Z,12.77
2023-03-12T09:26:20.764Z,12.73
2023-03-12T09:28:49.049Z,13.37
2023-03-12T09:31:17.262Z,14.90
2023-03-12T09:33:45.706Z,13.67
2023-03-12T09:36:14.831Z,14.60
2023-03-12T09:38:42.673Z,13.80
2023-03-12T09:41:21.901Z,14.27
2023-03-12T09:44:01.494Z,14.03
2023-03-12T09:46:35.635Z,14.83
2023-03-12T09:49:07.993Z,16.05
2023-03-12T09:51:42.413Z,15.97
2023-03-12T09:54:24.330Z,14.60
2023-03-12T09:56:54.361Z,15.10
2023-03-12T09:59:23.289Z,15.53
2023-03-12T10:01:58.101Z,15.60
2023-03-12T10:04:58.603Z,15.53
2023-03-12T10:07:35.922Z,15.10
2023-03-12T10:10:23.536Z,14.82
2023-03-12T10:13:15.243Z,15.10
2023-03-12T10:15:51.849Z,15.63
2023-03-12T10:18:32.853Z,15.77
2023-03-12T10:21:13.155Z,15.53
2023-03-12T10:23:58.054Z,15.23
2023-03-12T10:26:32.310Z,15.73
2023-03-12T10:29:05.802Z,15.63
2023-03-12T10:31:38.654Z,15.88
2023-03-12T10:34:16.838Z,16.10
2023-03-12T10:36:47.589Z,16.90
2023-03-12T10:39:26.565Z,17.33
2023-03-12T10:42:02.532Z,18.35
2023-03-12T10:44:33.157Z,18.00
2023-03-12T10:47:13.174Z,18.10
2023-03-12T10:49:42.898Z,17.98
2023-03-12T10:52:20.851Z,18.90
2023-03-12T10:55:10.661Z,18.83
2023-03-12T10:57:41.847Z,34.15
2023-03-12T11:00:19.355Z,19.30
2023-03-12T11:02:57.692Z,18.25
2023-03-12T11:05:30.096Z,19.80
2023-03-12T11:08:00.474Z,17.67
2023-03-12T11:10:42.716Z,19.23
2023-03-12T11:13:29.336Z,18.40
2023-03-12T11:15:58.778Z,17.25
2023-03-12T11:18:33.009Z,16.58
2023-03-12T11:21:16.548Z,17.48
2023-03-12T11:23:48.185Z,16.92
2023-03-12T11:26:20.353Z,17.35
2023-03-12T11:28:52.353Z,16.48
2023-03-12T11:31:26.862Z,15.25
2023-03-12T11:33:59.517Z,14.23
2023-03-12T11:36:36.556Z,15.35
2023-03-12T11:39:13.270Z,15.55
2023-03-12T11:41:57.323Z,15.60
2023-03-12T11:44:33.996Z,14.63
2023-03-12T11:47:20.756Z,15.00
2023-03-12T11:50:05.387Z,13.70
2023-03-12T11:52:44.238Z,14.00
2023-03-12T11:55:25.428Z,12.68
2023-03-12T11:58:06.832Z,13.00
2023-03-12T12:00:42.718Z,13.50
2023-03-12T12:03:35.886Z,14.70
2023-03-12T12:06:15.271Z,13.55
2023-03-12T12:08:59.134Z,11.23
2023-03-12T12:11:35.858Z,12.95
2023-03-12T12:14:18.906Z,9.73
2023-03-12T12:16:59.586Z,10.20
2023-03-12T12:19:44.276Z,10.48
2023-03-12T12:22:31.662Z,9.05
2023-03-12T12:25:29.546Z,9.80
2023-03-12T12:28:16.739Z,9.65
2023-03-12T12:31:00.462Z,8.32
2023-03-12T12:33:42.541Z,8.18
2023-03-12T12:36:18.200Z,6.60
2023-03-12T12:39:06.777Z,6.13
2023-03-12T12:41:40.658Z,6.72
2023-03-12T12:44:17.631Z,6.32
2023-03-12T12:46:52.031Z,6.55
2023-03-12T12:49:26.796Z,6.40
2023-03-12T12:51:59.670Z,5.85
2023-03-12T12:54:34.361Z,5.90
2023-03-12T12:57:12.835Z,5.03
2023-03-12T12:59:44.607Z,5.95
2023-03-12T13:02:24.491Z,4.70
2023-03-12T13:04:57.720Z,4.13
2023-03-12T13:07:37.844Z,3.80
2023-03-12T13:10:12.222Z,4.55
2023-03-12T13:12:48.856Z,4.00
2023-03-12T13:15:40.412Z,3.67
2023-03-12T13:18:24.420Z,4.10
2023-03-12T13:21:22.167Z,3.55
2023-03-12T13:24:00.981Z,4.07
2023-03-12T13:26:40.574Z,4.20
2023-03-12T13:29:24.070Z,4.07
2023-03-12T13:31:52.634Z,4.10
2023-03-12T13:34:48.144Z,4.82
2023-03-12T13:37:31.548Z,4.50
2023-03-12T13:40:10.983Z,5.18
2023-03-12T13:42:43.374Z,5.55
2023-03-12T13:45:32.080Z,4.70
2023-03-12T13:48:15.637Z,5.55
2023-03-12T13:51:00.314Z,5.68
2023-03-12T13:53:40.368Z,5.75
2023-03-12T13:56:12.828Z,5.50
2023-03-12T13:58:52.500Z,5.40
2023-03-12T14:01:56.145Z,4.55
2023-03-12T14:04:31.927Z,4.18
2023-03-12T14:07:26.414Z,4.38
2023-03-12T14:10:17.917Z,4.30
2023-03-12T14:12:56.553Z,4.30
2023-03-12T14:15:30.758Z,4.43
2023-03-12T14:18:02.683Z,4.55
2023-03-12T14:20:32.144Z,4.35
2023-03-12T14:23:07.343Z,4.72
2023-03-12T14:25:39.383Z,3.53
2023-03-12T14:28:14.579Z,12.65
2023-03-12T14:30:49.907Z,5.22
2023-03-12T14:33:19.421Z,4.10
2023-03-12T14:35:53.074Z,4.43
2023-03-12T14:38:30.751Z,4.13
2023-03-12T14:41:05.167Z,4.53
2023-03-12T14:43:35.860Z,4.13
2023-03-12T14:46:07.157Z,4.05
2023-03-12T14:48:36.934Z,3.85
2023-03-12T14:51:07.727Z,4.63
2023-03-12T14:53:38.419Z,4.13
2023-03-12T14:56:09.744Z,4.35
2023-03-12T14:58:45.128Z,4.10
2023-03-12T15:01:16.196Z,3.95
2023-03-12T15:03:50.182Z,3.90
2023-03-12T15:06:24.526Z,3.92
2023-03-12T15:08:59.626Z,3.47
2023-03-12T15:11:33.272Z,5.40
2023-03-12T15:14:08.478Z,16.83
2023-03-12T15:16:37.836Z,5.22
2023-03-12T15:19:08.170Z,4.28
2023-03-12T15:21:38.387Z,4.50
2023-03-12T15:24:13.664Z,3.47
2023-03-12T15:26:44.409Z,3.85
2023-03-12T15:29:29.340Z,3.72
2023-03-12T15:32:03.856Z,4.13
2023-03-12T15:34:36.770Z,4.20
2023-03-12T15:37:23.744Z,4.30
2023-03-12T15:40:05.342Z,4.55
2023-03-12T15:42:42.198Z,4.70
2023-03-12T15:45:20.430Z,4.20
2023-03-12T15:47:49.460Z,4.65
2023-03-12T15:50:22.283Z,3.88
2023-03-12T15:53:05.912Z,3.83
2023-03-12T15:55:36.625Z,3.40
2023-03-12T15:58:24.962Z,4.00
2023-03-12T16:00:53.846Z,3.65
2023-03-12T16:03:22.984Z,4.28
2023-03-12T16:05:52.146Z,3.70
2023-03-12T16:08:22.560Z,4.03
2023-03-12T16:10:52.326Z,3.72
2023-03-12T16:13:23.164Z,4.32
2023-03-12T16:15:51.065Z,3.63
2023-03-12T16:18:21.810Z,3.70
2023-03-12T16:20:51.864Z,3.70
2023-03-12T16:23:20.477Z,3.85
2023-03-12T16:25:52.400Z,3.80
2023-03-12T16:28:22.296Z,3.60
2023-03-12T16:30:50.522Z,3.97
2023-03-12T16:33:21.088Z,3.78
2023-03-12T16:35:48.928Z,3.95
2023-03-12T16:38:17.090Z,4.30
2023-03-12T16:40:48.244Z,4.10
2023-03-12T16:43:20.502Z,3.28
2023-03-12T16:45:49.374Z,3.72
2023-03-12T16:48:19.161Z,4.78
2023-03-12T16:50:49.269Z,4.10
2023-03-12T16:53:17.702Z,3.38
2023-03-12T16:55:50.026Z,3.72
2023-03-12T16:58:21.849Z,3.35
2023-03-12T17:00:51.529Z,3.63
2023-03-12T17:03:27.485Z,4.05
2023-03-12T17:06:01.946Z,4.55
2023-03-12T17:08:30.419Z,3.95
2023-03-12T17:11:01.243Z,3.33
2023-03-12T17:13:31.237Z,3.30
2023-03-12T17:16:00.079Z,3.92
2023-03-12T17:18:29.273Z,4.05
2023-03-12T17:21:01.858Z,4.35
2023-03-12T17:23:31.422Z,3.85
2023-03-12T17:26:00.235Z,4.15
2023-03-12T17:28:28.306Z,4.70
2023-03-12T17:31:00.976Z,4.70
2023-03-12T17:33:30.265Z,4.75
2023-03-12T17:36:00.547Z,4.60
2023-03-12T17:38:30.083Z,4.20
2023-03-12T17:41:00.610Z,4.22
2023-03-12T17:43:28.899Z,4.00
2023-03-12T17:45:59.685Z,4.57
2023-03-12T17:48:28.330Z,4.00
2023-03-12T17:50:58.457Z,6.32
2023-03-12T17:53:26.731Z,3.63
2023-03-12T17:55:55.597Z,4.10
2023-03-12T17:58:23.419Z,4.63
2023-03-12T18:00:51.288Z,3.53
2023-03-12T18:03:20.541Z,3.80
2023-03-12T18:05:51.016Z,4.38
2023-03-12T18:08:18.793Z,3.88
2023-03-12T18:10:46.875Z,3.58
2023-03-12T18:13:14.963Z,3.38
2023-03-12T18:15:43.477Z,3.95
2023-03-12T18:18:11.285Z,4.30
2023-03-12T18:20:41.650Z,4.78
2023-03-12T18:23:09.821Z,4.75
2023-03-12T18:25:39.212Z,4.40
2023-03-12T18:28:07.162Z,4.53
2023-03-12T18:30:35.489Z,3.95
2023-03-12T18:33:03.381Z,4.35
2023-03-12T18:35:31.225Z,3.95
2023-03-12T18:38:00.927Z,4.15
2023-03-12T18:40:30.285Z,3.95
2023-03-12T18:42:59.840Z,3.67
2023-03-12T18:45:28.480Z,4.20
2023-03-12T18:47:57.800Z,4.43
2023-03-12T18:50:26.475Z,4.25
2023-03-12T18:52:54.218Z,4.38
2023-03-12T18:55:23.938Z,4.70
2023-03-12T18:57:52.044Z,4.28
2023-03-12T19:00:21.246Z,4.28
2023-03-12T19:02:50.086Z,3.38
2023-03-12T19:05:18.392Z,10.35
2023-03-12T19:07:46.842Z,6.07
2023-03-12T19:10:16.312Z,3.65
2023-03-12T19:12:53.142Z,3.60
2023-03-12T19:15:22.580Z,3.80
2023-03-12T19:17:50.983Z,3.28
2023-03-12T19:20:20.329Z,3.22
2023-03-12T19:22:51.336Z,4.07
2023-03-12T19:25:20.685Z,3.20
2023-03-12T19:27:51.337Z,3.58
2023-03-12T19:30:21.291Z,3.63
2023-03-12T19:32:50.567Z,3.83
2023-03-12T19:35:19.194Z,3.88
2023-03-12T19:37:48.848Z,3.63
2023-03-12T19:40:17.670Z,5.45
2023-03-12T19:42:46.916Z,4.75
2023-03-12T19:45:17.394Z,4.00
2023-03-12T19:47:45.946Z,3.00
2023-03-12T19:50:14.979Z,4.32
2023-03-12T19:52:43.304Z,3.72
2023-03-12T19:55:12.331Z,3.90
2023-03-12T19:57:41.745Z,6.00
2023-03-12T20:00:12.316Z,4.60
2023-03-12T20:02:42.179Z,3.75
2023-03-12T20:05:11.482Z,5.15
2023-03-12T20:07:39.763Z,4.28
2023-03-12T20:10:11.931Z,4.45
2023-03-12T20:12:41.451Z,4.18
2023-03-12T20:15:10.516Z,4.80
2023-03-12T20:17:38.478Z,5.85
2023-03-12T20:20:09.622Z,4.65
2023-03-12T20:22:38.138Z,4.32
2023-03-12T20:25:07.376Z,4.60
2023-03-12T20:27:36.162Z,4.70
2023-03-12T20:30:06.632Z,4.05
2023-03-12T20:32:36.292Z,4.43
2023-03-12T20:35:04.390Z,4.25
2023-03-12T20:37:34.247Z,4.43
2023-03-12T20:40:05.405Z,3.50
2023-03-12T20:42:33.408Z,3.83
2023-03-12T20:45:03.179Z,4.22
2023-03-12T20:47:34.580Z,4.93
2023-03-12T20:50:06.267Z,4.75
2023-03-12T20:52:35.936Z,4.85
2023-03-12T20:55:05.072Z,4.28
2023-03-12T20:57:33.537Z,4.55
2023-03-12T21:00:04.080Z,5.30
2023-03-12T21:02:32.887Z,4.32
2023-03-12T21:05:03.386Z,5.47
2023-03-12T21:07:31.351Z,5.82
2023-03-12T21:10:01.438Z,5.20
2023-03-12T21:12:29.872Z,5.45
2023-03-12T21:15:06.472Z,5.47
2023-03-12T21:17:36.921Z,5.43
2023-03-12T21:20:09.645Z,4.65
2023-03-12T21:22:38.826Z,4.43
2023-03-12T21:25:09.431Z,5.07
2023-03-12T21:27:49.799Z,4.53
2023-03-12T21:30:21.999Z,4.75
2023-03-12T21:32:50.423Z,4.18
2023-03-12T21:35:20.255Z,5.05
2023-03-12T21:37:48.809Z,4.60
2023-03-12T21:40:20.223Z,4.95
2023-03-12T21:42:51.202Z,4.93
2023-03-12T21:45:19.743Z,4.70
2023-03-12T21:47:48.959Z,5.68
2023-03-12T21:50:17.453Z,4.90
2023-03-12T21:52:49.053Z,5.07
2023-03-12T21:55:20.595Z,4.40
2023-03-12T21:57:49.657Z,5.25
2023-03-12T22:00:19.035Z,4.90
2023-03-12T22:02:50.771Z,6.07
2023-03-12T22:05:19.489Z,6.10
2023-03-12T22:07:47.328Z,6.20
2023-03-12T22:10:15.043Z,6.35
2023-03-12T22:12:44.379Z,5.50
2023-03-12T22:15:12.733Z,5.97
2023-03-12T22:17:40.614Z,5.85
2023-03-12T22:20:10.104Z,5.65
2023-03-12T22:22:38.197Z,5.45
2023-03-12T22:25:06.825Z,5.25
2023-03-12T22:27:34.551Z,5.03
2023-03-12T22:30:04.450Z,4.82
2023-03-12T22:32:33.175Z,4.45
2023-03-12T22:35:02.297Z,4.90
2023-03-12T22:37:30.117Z,5.28
2023-03-12T22:40:06.971Z,5.95
2023-03-12T22:42:35.081Z,7.90
2023-03-12T22:45:07.326Z,6.35
2023-03-12T22:47:35.071Z,7.25
2023-03-12T22:50:03.793Z,6.88
2023-03-12T22:52:31.935Z,5.15
2023-03-12T22:55:01.151Z,5.28
2023-03-12T22:57:29.197Z,4.63
2023-03-12T22:59:57.652Z,4.97
2023-03-12T23:02:26.951Z,4.97
2023-03-12T23:04:54.803Z,4.82
2023-03-12T23:07:22.676Z,4.32
2023-03-12T23:09:50.824Z,5.43
2023-03-12T23:12:19.194Z,5.18
2023-03-12T23:14:47.060Z,5.00
2023-03-12T23:17:14.778Z,5.07
2023-03-12T23:19:43.799Z,4.32
2023-03-12T23:22:12.740Z,4.53
2023-03-12T23:24:40.495Z,5.18
2023-03-12T23:27:09.136Z,4.35
2023-03-12T23:29:36.949Z,4.68
2023-03-12T23:32:06.051Z,5.10
2023-03-12T23:34:34.640Z,4.72
2023-03-12T23:37:04.912Z,4.60
2023-03-12T23:39:37.139Z,4.25
2023-03-12T23:42:09.965Z,4.72
2023-03-12T23:44:38.884Z,4.15
2023-03-12T23:47:07.866Z,4.20
2023-03-12T23:49:35.745Z,4.05
2023-03-12T23:52:05.871Z,3.95
2023-03-12T23:54:35.832Z,3.28
2023-03-12T23:57:04.266Z,3.47
2023-03-12T23:59:32.209Z,3.33
